sensor_id;sensor_type;location;lat;lon;timestamp;P1;durP1;ratioP1;P2;durP2;ratioP2
56631;SDS011;42503;39.928;-75.152;2023-04-24T00:04:57;4.97;;;2.42;;
56631;SDS011;42503;39.928;-75.152;2023-04-24T00:15:03;6.78;;;2.40;;
56631;SDS011;42503;39.928;-75.152;2023-04-24T00:25:05;2.85;;;2.53;;
56631;SDS011;42503;39.928;-75.152;2023-04-24T00:35:07;3.95;;;2.33;;
56631;SDS011;42503;39.928;-75.152;2023-04-24T00:45:08;2.95;;;2.40;;
56631;SDS011;42503;39.928;-75.152;2023-04-24T00:55:10;4.53;;;2.50;;
56631;SDS011;42503;39.928;-75.152;2023-04-24T01:05:12;3.85;;;3.00;;
56631;SDS011;42503;39.928;-75.152;2023-04-24T01:15:15;4.40;;;3.65;;
56631;SDS011;42503;39.928;-75.152;2023-04-24T01:25:16;5.75;;;4.03;;
56631;SDS011;42503;39.928;-75.152;2023-04-24T01:35:18;7.03;;;3.17;;
56631;SDS011;42503;39.928;-75.152;2023-04-24T01:45:20;3.58;;;2.60;;
56631;SDS011;42503;39.928;-75.152;2023-04-24T01:55:22;2.90;;;2.60;;
56631;SDS011;42503;39.928;-75.152;2023-04-24T02:05:23;6.72;;;2.70;;
56631;SDS011;42503;39.928;-75.152;2023-04-24T02:15:24;11.57;;;3.33;;
56631;SDS011;42503;39.928;-75.152;2023-04-24T02:25:26;4.28;;;2.50;;
56631;SDS011;42503;39.928;-75.152;2023-04-24T02:35:30;3.05;;;2.20;;
56631;SDS011;42503;39.928;-75.152;2023-04-24T02:45:31;7.03;;;2.00;;
56631;SDS011;42503;39.928;-75.152;2023-04-24T02:55:35;27.52;;;3.90;;
56631;SDS011;42503;39.928;-75.152;2023-04-24T03:05:36;11.23;;;2.50;;
56631;SDS011;42503;39.928;-75.152;2023-04-24T03:15:38;5.05;;;2.58;;
56631;SDS011;42503;39.928;-75.152;2023-04-24T03:25:42;7.10;;;2.47;;
56631;SDS011;42503;39.928;-75.152;2023-04-24T03:35:43;10.15;;;2.47;;
56631;SDS011;42503;39.928;-75.152;2023-04-24T03:45:45;3.53;;;1.98;;
56631;SDS011;42503;39.928;-75.152;2023-04-24T03:55:47;2.90;;;2.28;;
56631;SDS011;42503;39.928;-75.152;2023-04-24T04:05:51;3.38;;;2.00;;
56631;SDS011;42503;39.928;-75.152;2023-04-24T04:15:53;2.53;;;2.17;;
56631;SDS011;42503;39.928;-75.152;2023-04-24T04:25:55;2.28;;;2.03;;
56631;SDS011;42503;39.928;-75.152;2023-04-24T04:35:57;3.20;;;2.00;;
56631;SDS011;42503;39.928;-75.152;2023-04-24T04:45:59;1.88;;;1.60;;
56631;SDS011;42503;39.928;-75.152;2023-04-24T04:56:01;1.80;;;1.60;;
56631;SDS011;42503;39.928;-75.152;2023-04-24T05:06:05;1.58;;;1.48;;
56631;SDS011;42503;39.928;-75.152;2023-04-24T05:16:09;3.92;;;1.67;;
56631;SDS011;42503;39.928;-75.152;2023-04-24T05:26:11;1.55;;;1.30;;
56631;SDS011;42503;39.928;-75.152;2023-04-24T05:36:13;2.67;;;1.63;;
56631;SDS011;42503;39.928;-75.152;2023-04-24T05:46:15;2.03;;;1.52;;
56631;SDS011;42503;39.928;-75.152;2023-04-24T05:56:19;1.17;;;1.08;;
56631;SDS011;42503;39.928;-75.152;2023-04-24T06:06:24;1.42;;;1.30;;
56631;SDS011;42503;39.928;-75.152;2023-04-24T06:16:26;2.58;;;1.10;;
56631;SDS011;42503;39.928;-75.152;2023-04-24T06:26:27;1.27;;;1.10;;
56631;SDS011;42503;39.928;-75.152;2023-04-24T06:36:36;1.70;;;1.20;;
56631;SDS011;42503;39.928;-75.152;2023-04-24T06:46:38;1.00;;;0.90;;
56631;SDS011;42503;39.928;-75.152;2023-04-24T06:56:39;1.35;;;1.10;;
56631;SDS011;42503;39.928;-75.152;2023-04-24T07:06:41;1.52;;;1.10;;
56631;SDS011;42503;39.928;-75.152;2023-04-24T07:16:45;1.02;;;0.93;;
56631;SDS011;42503;39.928;-75.152;2023-04-24T07:26:46;0.93;;;0.90;;
56631;SDS011;42503;39.928;-75.152;2023-04-24T07:36:48;0.90;;;0.90;;
56631;SDS011;42503;39.928;-75.152;2023-04-24T07:46:49;1.00;;;0.90;;
56631;SDS011;42503;39.928;-75.152;2023-04-24T07:56:51;1.13;;;1.00;;
56631;SDS011;42503;39.928;-75.152;2023-04-24T08:06:55;0.95;;;0.90;;
56631;SDS011;42503;39.928;-75.152;2023-04-24T08:16:57;0.90;;;0.90;;
56631;SDS011;42503;39.928;-75.152;2023-04-24T08:27:00;0.80;;;0.75;;
56631;SDS011;42503;39.928;-75.152;2023-04-24T08:37:02;0.80;;;0.80;;
56631;SDS011;42503;39.928;-75.152;2023-04-24T08:47:06;0.90;;;0.90;;
56631;SDS011;42503;39.928;-75.152;2023-04-24T08:57:09;0.85;;;0.82;;
56631;SDS011;42503;39.928;-75.152;2023-04-24T09:07:12;2.25;;;0.90;;
56631;SDS011;42503;39.928;-75.152;2023-04-24T09:17:15;1.13;;;0.80;;
56631;SDS011;42503;39.928;-75.152;2023-04-24T09:27:16;1.25;;;0.80;;
56631;SDS011;42503;39.928;-75.152;2023-04-24T09:37:29;1.02;;;0.93;;
56631;SDS011;42503;39.928;-75.152;2023-04-24T09:47:35;1.10;;;0.80;;
56631;SDS011;42503;39.928;-75.152;2023-04-24T09:57:46;0.95;;;0.85;;
56631;SDS011;42503;39.928;-75.152;2023-04-24T10:07:49;0.68;;;0.68;;
56631;SDS011;42503;39.928;-75.152;2023-04-24T10:17:50;1.00;;;0.70;;
56631;SDS011;42503;39.928;-75.152;2023-04-24T10:27:55;3.30;;;1.10;;
56631;SDS011;42503;39.928;-75.152;2023-04-24T10:38:13;1.52;;;0.80;;
56631;SDS011;42503;39.928;-75.152;2023-04-24T10:48:17;0.60;;;0.60;;
56631;SDS011;42503;39.928;-75.152;2023-04-24T10:58:22;3.10;;;0.68;;
56631;SDS011;42503;39.928;-75.152;2023-04-24T11:08:32;3.03;;;0.88;;
56631;SDS011;42503;39.928;-75.152;2023-04-24T11:18:49;2.25;;;1.05;;
56631;SDS011;42503;39.928;-75.152;2023-04-24T11:28:54;4.75;;;1.20;;
56631;SDS011;42503;39.928;-75.152;2023-04-24T11:39:07;3.63;;;0.95;;
56631;SDS011;42503;39.928;-75.152;2023-04-24T11:49:09;2.47;;;1.10;;
56631;SDS011;42503;39.928;-75.152;2023-04-24T11:59:10;3.58;;;1.20;;
56631;SDS011;42503;39.928;-75.152;2023-04-24T12:09:11;3.03;;;0.95;;
56631;SDS011;42503;39.928;-75.152;2023-04-24T12:19:17;5.07;;;0.98;;
56631;SDS011;42503;39.928;-75.152;2023-04-24T12:29:28;3.38;;;0.95;;
56631;SDS011;42503;39.928;-75.152;2023-04-24T12:39:29;1.83;;;0.98;;
56631;SDS011;42503;39.928;-75.152;2023-04-24T12:49:30;2.25;;;1.00;;
56631;SDS011;42503;39.928;-75.152;2023-04-24T12:59:32;2.60;;;1.00;;
56631;SDS011;42503;39.928;-75.152;2023-04-24T13:09:33;1.20;;;0.98;;
56631;SDS011;42503;39.928;-75.152;2023-04-24T13:19:36;1.65;;;0.90;;
56631;SDS011;42503;39.928;-75.152;2023-04-24T13:29:38;1.15;;;1.00;;
56631;SDS011;42503;39.928;-75.152;2023-04-24T13:39:39;1.40;;;0.80;;
56631;SDS011;42503;39.928;-75.152;2023-04-24T13:49:42;0.95;;;0.60;;
56631;SDS011;42503;39.928;-75.152;2023-04-24T13:59:44;1.10;;;0.70;;
56631;SDS011;42503;39.928;-75.152;2023-04-24T14:09:46;2.08;;;0.80;;
56631;SDS011;42503;39.928;-75.152;2023-04-24T14:19:47;2.35;;;0.70;;
56631;SDS011;42503;39.928;-75.152;2023-04-24T14:29:48;0.73;;;0.68;;
56631;SDS011;42503;39.928;-75.152;2023-04-24T14:39:50;1.98;;;0.88;;
56631;SDS011;42503;39.928;-75.152;2023-04-24T14:49:51;0.82;;;0.80;;
56631;SDS011;42503;39.928;-75.152;2023-04-24T14:59:52;0.88;;;0.80;;
56631;SDS011;42503;39.928;-75.152;2023-04-24T15:09:57;0.85;;;0.65;;
56631;SDS011;42503;39.928;-75.152;2023-04-24T15:19:58;0.70;;;0.70;;
56631;SDS011;42503;39.928;-75.152;2023-04-24T15:30:01;0.60;;;0.52;;
56631;SDS011;42503;39.928;-75.152;2023-04-24T15:40:02;0.90;;;0.75;;
56631;SDS011;42503;39.928;-75.152;2023-04-24T15:50:06;0.85;;;0.65;;
56631;SDS011;42503;39.928;-75.152;2023-04-24T16:00:10;1.08;;;0.50;;
56631;SDS011;42503;39.928;-75.152;2023-04-24T16:10:11;0.50;;;0.50;;
56631;SDS011;42503;39.928;-75.152;2023-04-24T16:20:13;0.65;;;0.60;;
56631;SDS011;42503;39.928;-75.152;2023-04-24T16:30:15;0.52;;;0.52;;
56631;SDS011;42503;39.928;-75.152;2023-04-24T16:40:25;0.40;;;0.40;;
56631;SDS011;42503;39.928;-75.152;2023-04-24T16:50:27;0.50;;;0.50;;
56631;SDS011;42503;39.928;-75.152;2023-04-24T17:00:28;0.88;;;0.70;;
56631;SDS011;42503;39.928;-75.152;2023-04-24T17:10:32;0.50;;;0.50;;
56631;SDS011;42503;39.928;-75.152;2023-04-24T17:20:34;0.63;;;0.63;;
56631;SDS011;42503;39.928;-75.152;2023-04-24T17:30:35;0.38;;;0.38;;
56631;SDS011;42503;39.928;-75.152;2023-04-24T17:40:39;0.55;;;0.55;;
56631;SDS011;42503;39.928;-75.152;2023-04-24T17:50:41;0.82;;;0.60;;
56631;SDS011;42503;39.928;-75.152;2023-04-24T18:00:45;0.65;;;0.50;;
56631;SDS011;42503;39.928;-75.152;2023-04-24T18:10:46;0.70;;;0.50;;
56631;SDS011;42503;39.928;-75.152;2023-04-24T18:20:54;0.60;;;0.50;;
56631;SDS011;42503;39.928;-75.152;2023-04-24T18:30:56;0.30;;;0.30;;
56631;SDS011;42503;39.928;-75.152;2023-04-24T18:40:58;1.50;;;0.60;;
56631;SDS011;42503;39.928;-75.152;2023-04-24T18:50:59;0.50;;;0.50;;
56631;SDS011;42503;39.928;-75.152;2023-04-24T19:01:04;0.98;;;0.77;;
56631;SDS011;42503;39.928;-75.152;2023-04-24T19:11:08;1.20;;;0.77;;
56631;SDS011;42503;39.928;-75.152;2023-04-24T19:21:11;0.50;;;0.47;;
56631;SDS011;42503;39.928;-75.152;2023-04-24T19:31:12;0.93;;;0.60;;
56631;SDS011;42503;39.928;-75.152;2023-04-24T19:41:13;1.48;;;0.77;;
56631;SDS011;42503;39.928;-75.152;2023-04-24T19:51:15;0.50;;;0.38;;
56631;SDS011;42503;39.928;-75.152;2023-04-24T20:01:17;0.55;;;0.50;;
56631;SDS011;42503;39.928;-75.152;2023-04-24T20:11:18;0.82;;;0.40;;
56631;SDS011;42503;39.928;-75.152;2023-04-24T20:21:19;0.73;;;0.52;;
56631;SDS011;42503;39.928;-75.152;2023-04-24T20:31:23;1.05;;;0.60;;
56631;SDS011;42503;39.928;-75.152;2023-04-24T20:41:28;0.70;;;0.68;;
56631;SDS011;42503;39.928;-75.152;2023-04-24T20:51:29;1.15;;;0.80;;
56631;SDS011;42503;39.928;-75.152;2023-04-24T21:01:32;0.40;;;0.40;;
56631;SDS011;42503;39.928;-75.152;2023-04-24T21:11:33;0.60;;;0.55;;
56631;SDS011;42503;39.928;-75.152;2023-04-24T21:21:34;1.27;;;0.60;;
56631;SDS011;42503;39.928;-75.152;2023-04-24T21:31:36;0.57;;;0.57;;
56631;SDS011;42503;39.928;-75.152;2023-04-24T21:41:37;4.30;;;0.80;;
56631;SDS011;42503;39.928;-75.152;2023-04-24T21:51:39;11.60;;;1.70;;
56631;SDS011;42503;39.928;-75.152;2023-04-24T22:01:40;7.40;;;1.50;;
56631;SDS011;42503;39.928;-75.152;2023-04-24T22:11:41;3.40;;;1.00;;
56631;SDS011;42503;39.928;-75.152;2023-04-24T22:21:43;5.13;;;1.00;;
56631;SDS011;42503;39.928;-75.152;2023-04-24T22:31:47;3.35;;;1.00;;
56631;SDS011;42503;39.928;-75.152;2023-04-24T22:41:50;3.97;;;1.00;;
56631;SDS011;42503;39.928;-75.152;2023-04-24T22:51:51;2.83;;;0.82;;
56631;SDS011;42503;39.928;-75.152;2023-04-24T23:01:53;3.25;;;1.02;;
56631;SDS011;42503;39.928;-75.152;2023-04-24T23:11:57;2.45;;;1.00;;
56631;SDS011;42503;39.928;-75.152;2023-04-24T23:21:58;1.98;;;1.00;;
56631;SDS011;42503;39.928;-75.152;2023-04-24T23:32:00;12.55;;;1.45;;
56631;SDS011;42503;39.928;-75.152;2023-04-24T23:42:03;5.55;;;1.13;;
56631;SDS011;42503;39.928;-75.152;2023-04-24T23:52:04;3.13;;;1.50;;
